createdAt,value
2024-01-01T00:02:05.014Z,94781.09
2024-01-01T01:10:05.082Z,94779.94
2024-01-01T01:12:33.945Z,94780.50
2024-01-01T01:15:00.614Z,94779.09
2024-01-01T01:17:27.405Z,94783.50
2024-01-01T01:19:54.026Z,94777.59
2024-01-01T01:22:20.701Z,94799.75
2024-01-01T01:24:47.253Z,94796.94
2024-01-01T01:27:13.806Z,94801.63
2024-01-01T01:29:41.497Z,94795.22
2024-01-01T01:32:08.235Z,94782.59
2024-01-01T01:34:34.861Z,94800.50
2024-01-01T01:37:01.413Z,94800.28
2024-01-01T01:39:34.017Z,94794.47
2024-01-01T01:42:00.613Z,94803.38
2024-01-01T01:44:27.255Z,94796.03
2024-01-01T01:47:03.556Z,94814.00
2024-01-01T01:49:30.253Z,94815.41
2024-01-01T01:51:57.691Z,94811.53
2024-01-01T01:54:24.616Z,94816.22
2024-01-01T01:56:53.570Z,94808.97
2024-01-01T01:59:20.177Z,94815.91
2024-01-01T02:01:46.788Z,94814.94
2024-01-01T02:04:13.429Z,94812.19
2024-01-01T02:06:39.989Z,94814.94
2024-01-01T02:09:06.803Z,94805.84
2024-01-01T02:11:33.556Z,94803.91
2024-01-01T02:14:19.352Z,94808.34
2024-01-01T02:16:46.148Z,94809.44
2024-01-01T02:19:22.827Z,94821.25
2024-01-01T02:22:11.225Z,94825.09
2024-01-01T02:28:05.329Z,94842.69
2024-01-01T02:30:38.442Z,94849.47
2024-01-01T02:33:11.761Z,94842.63
2024-01-01T02:35:38.987Z,94828.03
2024-01-01T02:38:06.028Z,94829.34
2024-01-01T02:40:33.798Z,94828.06
2024-01-01T02:43:01.037Z,94837.19
2024-01-01T02:45:28.964Z,94836.69
2024-01-01T02:47:55.788Z,94840.94
2024-01-01T02:50:23.137Z,94849.56
2024-01-01T02:52:49.963Z,94845.63
2024-01-01T02:55:16.893Z,94848.78
2024-01-01T02:57:43.629Z,94851.31
2024-01-01T03:00:10.920Z,94855.19
2024-01-01T03:02:38.108Z,94860.91
2024-01-01T03:05:06.146Z,94859.69
2024-01-01T03:07:34.170Z,94848.31
2024-01-01T03:10:25.774Z,94858.47
2024-01-01T03:13:04.872Z,94864.50
2024-01-01T03:15:31.521Z,94850.94
2024-01-01T03:17:58.167Z,94855.09
2024-01-01T03:20:24.918Z,94840.56
2024-01-01T03:22:53.183Z,94835.75
2024-01-01T03:25:21.291Z,94848.66
2024-01-01T03:27:47.867Z,94851.72
2024-01-01T03:30:14.554Z,94852.94
2024-01-01T03:32:41.352Z,94854.19
2024-01-01T03:35:08.091Z,94840.34
2024-01-01T03:37:34.794Z,94847.19
2024-01-01T03:40:01.464Z,94853.72
2024-01-01T03:42:28.071Z,94843.97
2024-01-01T03:45:07.218Z,94836.63
2024-01-01T03:51:20.652Z,94832.56
2024-01-01T03:53:47.585Z,94840.72
2024-01-01T03:56:14.358Z,94825.25
2024-01-01T03:58:41.375Z,94836.19
2024-01-01T04:01:12.570Z,94833.06
2024-01-01T04:03:41.615Z,94839.75
2024-01-01T04:06:08.880Z,94840.25
2024-01-01T04:08:35.527Z,94839.13
2024-01-01T04:11:02.107Z,94836.06
2024-01-01T04:13:48.666Z,94838.44
2024-01-01T04:16:15.295Z,94844.84
2024-01-01T04:18:42.017Z,94842.16
2024-01-01T04:21:08.702Z,94836.84
2024-01-01T04:23:35.294Z,94834.81
2024-01-01T04:26:02.995Z,94834.78
2024-01-01T04:28:29.652Z,94845.06
2024-01-01T04:30:56.334Z,94844.19
2024-01-01T04:33:41.719Z,94852.25
2024-01-01T04:36:08.416Z,94851.09
2024-01-01T04:38:35.119Z,94842.69
2024-01-01T04:41:20.160Z,94841.53
2024-01-01T04:43:46.893Z,94846.19
2024-01-01T04:46:17.321Z,94841.56
2024-01-01T04:48:43.939Z,94852.91
2024-01-01T04:51:10.579Z,94837.16
2024-01-01T04:53:37.145Z,94839.56
2024-01-01T04:56:03.822Z,94840.34
2024-01-01T04:58:30.474Z,94831.09
2024-01-01T05:00:57.086Z,94817.28
2024-01-01T05:03:26.702Z,94819.28
2024-01-01T05:05:53.383Z,94825.75
2024-01-01T05:08:19.997Z,94830.56
2024-01-01T05:10:46.733Z,94838.19
2024-01-01T05:13:13.289Z,94843.78
2024-01-01T05:15:39.828Z,94850.28
2024-01-01T05:18:07.215Z,94843.97
2024-01-01T05:20:34.015Z,94848.25
2024-01-01T05:23:00.614Z,94849.59
2024-01-01T05:25:28.247Z,94843.09
2024-01-01T05:27:54.808Z,94856.28
2024-01-01T05:30:21.428Z,94865.56
2024-01-01T05:32:51.107Z,94870.00
2024-01-01T05:35:17.799Z,94872.88
2024-01-01T05:41:24.670Z,94857.56
2024-01-01T05:43:51.323Z,94855.94
2024-01-01T05:46:17.965Z,94852.91
2024-01-01T05:48:44.867Z,94855.53
2024-01-01T05:51:11.759Z,94844.84
2024-01-01T05:53:38.353Z,94847.66
2024-01-01T05:56:05.242Z,94844.00
2024-01-01T05:58:33.125Z,94843.63
2024-01-01T06:00:59.737Z,94857.75
2024-01-01T06:03:26.459Z,94848.47
2024-01-01T06:05:53.145Z,94863.16
2024-01-01T06:08:23.044Z,94863.41
2024-01-01T06:10:49.693Z,94873.69
2024-01-01T06:13:16.268Z,94871.09
2024-01-01T06:15:42.883Z,94871.69
2024-01-01T06:18:09.725Z,94870.50
2024-01-01T06:20:43.398Z,94873.72
2024-01-01T06:23:09.964Z,94867.06
2024-01-01T06:25:36.577Z,94882.00
2024-01-01T06:28:03.499Z,94879.53
2024-01-01T06:30:30.298Z,94877.22
2024-01-01T06:32:57.075Z,94870.88
2024-01-01T06:35:24.558Z,94874.53
2024-01-01T06:37:52.095Z,94878.00
2024-01-01T06:40:18.739Z,94878.16
2024-01-01T06:42:51.359Z,94884.94
2024-01-01T06:45:18.087Z,94873.22
2024-01-01T06:47:44.766Z,94898.00
2024-01-01T06:50:11.781Z,94893.75
2024-01-01T06:52:38.387Z,94891.16
2024-01-01T06:55:05.503Z,94886.06
2024-01-01T06:57:32.073Z,94901.84
2024-01-01T06:59:58.632Z,94907.91
2024-01-01T07:02:26.612Z,94901.75
2024-01-01T07:04:53.297Z,94903.41
2024-01-01T07:07:19.868Z,94912.44
2024-01-01T07:09:46.491Z,94907.31
2024-01-01T07:12:23.860Z,94916.63
2024-01-01T07:14:51.177Z,94926.28
2024-01-01T07:17:18.767Z,94917.84
2024-01-01T07:19:45.408Z,94927.09
2024-01-01T07:22:12.035Z,94923.13
2024-01-01T07:25:07.361Z,94917.50
2024-01-01T07:27:33.965Z,94943.41
2024-01-01T07:30:00.674Z,94928.28
2024-01-01T07:35:12.369Z,94941.00
2024-01-01T07:37:39.105Z,94944.22
2024-01-01T07:40:06.385Z,94941.41
2024-01-01T07:42:39.256Z,94935.31
2024-01-01T07:45:06.210Z,94947.09
2024-01-01T07:47:32.899Z,94946.69
2024-01-01T07:49:59.679Z,94940.09
2024-01-01T07:52:26.299Z,94955.09
2024-01-01T07:54:52.882Z,94940.09
2024-01-01T07:57:19.464Z,94946.38
2024-01-01T07:59:46.033Z,94948.75
2024-01-01T08:02:12.651Z,94955.03
2024-01-01T08:04:39.353Z,94940.09
2024-01-01T08:07:15.285Z,94939.69
2024-01-01T08:09:44.986Z,94955.03
2024-01-01T08:12:11.587Z,94940.88
2024-01-01T08:14:38.165Z,94938.16
2024-01-01T08:17:04.847Z,94950.59
2024-01-01T08:22:48.585Z,94944.63
2024-01-01T08:25:15.273Z,94947.16
2024-01-01T08:31:10.518Z,94956.03
2024-01-01T08:33:37.203Z,94940.72
2024-01-01T08:36:04.132Z,94947.91
2024-01-01T08:39:04.799Z,94949.25
2024-01-01T08:41:31.403Z,94949.69
2024-01-01T09:08:05.956Z,94959.06
2024-01-01T09:10:32.871Z,94964.59
2024-01-01T09:12:59.571Z,94954.75
2024-01-01T09:15:28.531Z,94963.22
2024-01-01T09:21:26.652Z,94969.34
2024-01-01T09:23:54.308Z,94962.84
2024-01-01T09:26:20.941Z,94957.38
2024-01-01T09:28:47.561Z,94964.09
2024-01-01T09:34:03.629Z,94973.97
2024-01-01T09:36:33.686Z,94971.97
2024-01-01T09:39:03.927Z,94976.88
2024-01-01T09:41:33.533Z,94976.59
2024-01-01T09:44:00.752Z,94982.75
2024-01-01T09:46:33.530Z,94971.56
2024-01-01T09:49:14.228Z,94997.06
2024-01-01T09:51:43.959Z,94985.47
2024-01-01T09:54:10.571Z,94985.53
2024-01-01T09:56:37.210Z,95000.97
2024-01-01T09:59:03.945Z,94995.56
2024-01-01T10:01:30.778Z,94994.47
2024-01-01T10:04:01.455Z,94993.09
2024-01-01T10:06:29.168Z,94995.41
2024-01-01T10:09:14.346Z,94992.09
2024-01-01T10:11:46.569Z,94982.88
2024-01-01T10:14:15.540Z,94980.41
2024-01-01T10:16:43.152Z,94987.97
2024-01-01T10:19:10.051Z,94983.16
2024-01-01T10:21:38.766Z,94976.53
2024-01-01T10:27:17.032Z,94979.59
2024-01-01T10:29:45.845Z,94975.22
2024-01-01T10:32:16.272Z,94964.56
2024-01-01T10:34:43.890Z,94980.28
2024-01-01T10:37:22.722Z,94973.16
2024-01-01T10:39:49.633Z,94979.50
2024-01-01T10:45:18.249Z,94982.25
2024-01-01T10:51:49.527Z,94986.03
2024-01-01T10:54:34.936Z,94988.91
2024-01-01T10:57:07.573Z,94993.31
2024-01-01T11:00:20.596Z,94989.81
2024-01-01T11:05:55.127Z,94986.19
2024-01-01T11:08:28.460Z,94988.53
2024-01-01T11:10:58.256Z,94992.84
2024-01-01T11:13:31.106Z,94997.59
2024-01-01T11:16:02.703Z,94993.31
2024-01-01T11:18:33.869Z,94993.81
2024-01-01T11:21:01.045Z,94984.06
2024-01-01T11:25:56.297Z,94992.59
2024-01-01T11:28:44.296Z,94990.06
2024-01-01T11:31:15.950Z,94987.41
2024-01-01T11:33:42.731Z,94995.34
2024-01-01T11:39:00.460Z,94987.44
2024-01-01T11:41:36.374Z,94984.06
2024-01-01T11:44:16.801Z,94988.91
2024-01-01T11:46:43.922Z,94982.47
2024-01-01T11:49:12.402Z,94983.56
2024-01-01T11:51:53.462Z,94973.78
2024-01-01T11:54:20.163Z,94981.75
2024-01-01T11:56:46.891Z,94984.28
2024-01-01T11:59:14.550Z,94968.91
2024-01-01T12:01:47.499Z,94969.75
2024-01-01T12:04:14.288Z,94959.09
2024-01-01T12:07:13.093Z,94960.59
2024-01-01T12:09:39.736Z,94945.19
2024-01-01T12:12:08.201Z,94945.00
2024-01-01T12:15:14.420Z,94957.28
2024-01-01T12:17:48.307Z,94947.06
2024-01-01T12:20:22.151Z,94941.81
2024-01-01T12:22:48.980Z,94935.69
2024-01-01T12:25:16.853Z,94933.44
2024-01-01T12:27:45.158Z,94946.03
2024-01-01T12:30:30.163Z,94934.94
2024-01-01T12:32:57.789Z,94934.59
2024-01-01T12:35:30.499Z,94952.00
2024-01-01T12:38:10.646Z,94931.31
2024-01-01T12:40:44.632Z,94936.31
2024-01-01T12:43:11.280Z,94930.16
2024-01-01T12:45:38.090Z,94930.84
2024-01-01T12:48:08.708Z,94926.50
2024-01-01T12:50:35.442Z,94908.19
2024-01-01T12:53:02.115Z,94920.19
2024-01-01T12:55:34.710Z,94911.38
2024-01-01T12:58:01.350Z,94909.94
2024-01-01T13:00:27.921Z,94908.09
2024-01-01T13:02:54.559Z,94905.34
2024-01-01T13:05:26.664Z,94905.00
2024-01-01T13:07:53.554Z,94896.88
2024-01-01T13:14:13.735Z,94896.00
2024-01-01T13:16:40.393Z,94901.06
2024-01-01T13:19:07.086Z,94901.56
2024-01-01T13:25:17.987Z,94912.41
2024-01-01T13:27:54.491Z,94893.00
2024-01-01T13:30:21.249Z,94886.72
2024-01-01T13:32:54.105Z,94899.88
2024-01-01T13:44:12.176Z,94900.56
2024-01-01T13:46:40.713Z,94898.72
2024-01-01T13:56:24.540Z,94888.47
2024-01-01T13:59:06.501Z,94876.63
2024-01-01T14:01:36.925Z,94886.53
2024-01-01T14:04:03.777Z,94872.91
2024-01-01T14:06:30.439Z,94888.41
2024-01-01T14:08:57.065Z,94874.28
2024-01-01T14:11:23.745Z,94875.53
2024-01-01T14:13:50.469Z,94893.81
2024-01-01T14:16:17.176Z,94892.00
2024-01-01T14:18:44.015Z,94873.06
2024-01-01T14:24:39.381Z,94867.03
2024-01-01T14:27:15.168Z,94870.41
2024-01-01T14:29:41.737Z,94879.41
2024-01-01T14:32:30.326Z,94883.84
2024-01-01T14:35:03.533Z,94864.47
2024-01-01T14:37:32.763Z,94871.44
2024-01-01T14:40:21.357Z,94879.50
2024-01-01T14:43:00.329Z,94876.53
2024-01-01T14:45:33.392Z,94894.25
2024-01-01T14:48:16.382Z,94894.78
2024-01-01T14:50:43.077Z,94888.84
2024-01-01T14:53:19.294Z,94885.72
2024-01-01T14:55:48.808Z,94875.16
2024-01-01T14:58:34.144Z,94885.63
2024-01-01T15:01:22.533Z,94895.97
2024-01-01T15:07:16.091Z,94896.41
2024-01-01T15:10:04.389Z,94888.88
2024-01-01T15:12:54.945Z,94903.03
2024-01-01T15:15:39.824Z,94905.41
2024-01-01T15:18:24.914Z,94900.13
2024-01-01T15:20:51.637Z,94918.44
2024-01-01T15:23:18.333Z,94906.97
2024-01-01T15:25:46.232Z,94920.13
2024-01-01T15:28:12.922Z,94931.69
2024-01-01T15:30:45.520Z,94937.56
2024-01-01T15:33:12.472Z,94941.28
2024-01-01T15:35:40.304Z,94942.75
2024-01-01T15:38:07.357Z,94955.13
2024-01-01T15:40:44.461Z,94957.53
2024-01-01T15:46:44.107Z,94950.53
2024-01-01T15:49:10.822Z,94959.31
2024-01-01T15:51:39.806Z,94959.38
2024-01-01T15:54:07.285Z,94963.19
2024-01-01T15:56:34.141Z,94964.78
2024-01-01T15:59:03.155Z,94954.06
2024-01-01T16:01:29.744Z,94960.78
2024-01-01T16:12:05.754Z,94967.03
2024-01-01T16:14:32.494Z,94962.50
2024-01-01T16:17:05.252Z,94974.06
2024-01-01T16:20:09.631Z,94968.78
2024-01-01T16:22:45.457Z,94971.91
2024-01-01T16:25:12.082Z,94969.44
2024-01-01T16:27:38.645Z,94977.03
2024-01-01T16:30:06.184Z,94966.47
2024-01-01T16:32:37.206Z,94974.03
2024-01-01T16:35:04.159Z,94971.28
2024-01-01T16:37:31.841Z,94970.91
2024-01-01T16:39:59.474Z,94972.38
2024-01-01T16:42:27.676Z,94967.19
2024-01-01T16:44:54.672Z,94970.34
2024-01-01T16:47:24.602Z,94973.66
2024-01-01T16:49:51.324Z,94980.81
2024-01-01T17:52:45.710Z,94968.06
2024-01-01T17:55:16.855Z,94967.34
2024-01-01T17:57:43.463Z,94969.69
2024-01-01T18:00:10.634Z,94979.81
2024-01-01T18:02:37.259Z,94973.00
2024-01-01T18:05:13.161Z,94977.66
2024-01-01T18:07:42.707Z,94958.59
2024-01-01T18:10:10.422Z,94970.34
2024-01-01T18:12:37.160Z,94951.47
2024-01-01T18:15:04.131Z,94966.16
2024-01-01T18:17:30.927Z,94964.38
2024-01-01T18:20:03.558Z,94950.03
2024-01-01T18:22:30.246Z,94953.56
2024-01-01T18:24:56.824Z,94950.31
2024-01-01T18:27:29.652Z,94954.00
2024-01-01T18:29:56.309Z,94959.84
2024-01-01T18:32:23.140Z,94960.44
2024-01-01T18:34:50.661Z,94956.06
2024-01-01T18:37:17.416Z,94951.25
2024-01-01T18:39:43.997Z,94955.00
2024-01-01T18:42:11.829Z,94965.84
2024-01-01T18:44:38.523Z,94975.69
2024-01-01T18:47:05.410Z,94972.91
2024-01-01T18:49:32.246Z,94976.97
2024-01-01T18:51:58.868Z,94997.09
2024-01-01T18:54:26.516Z,95005.97
2024-01-01T18:56:53.377Z,95019.03
2024-01-01T18:59:20.063Z,95013.34
2024-01-01T19:01:46.745Z,95012.44
2024-01-01T19:04:20.077Z,95014.84
2024-01-01T19:06:47.370Z,95022.66
2024-01-01T19:09:13.962Z,95021.94
2024-01-01T19:11:41.241Z,95024.63
2024-01-01T19:14:08.113Z,95023.31
2024-01-01T19:16:34.701Z,95038.59
2024-01-01T19:19:01.450Z,95051.09
2024-01-01T19:21:29.237Z,95047.44
2024-01-01T19:23:55.904Z,95039.53
2024-01-01T19:26:22.576Z,95037.63
2024-01-01T19:28:49.241Z,95047.00
2024-01-01T19:31:15.990Z,95042.31
2024-01-01T19:33:42.756Z,95032.59
2024-01-01T19:36:13.633Z,95023.06
2024-01-01T19:38:41.253Z,95013.03
2024-01-01T19:41:08.632Z,95008.34
2024-01-01T19:43:37.638Z,95022.16
2024-01-01T19:46:04.316Z,95024.59
2024-01-01T19:48:33.971Z,95010.72
2024-01-01T19:51:04.220Z,95018.00
2024-01-01T19:53:34.234Z,95039.88
2024-01-01T19:56:01.279Z,95028.16
2024-01-01T19:58:35.111Z,95021.94
2024-01-01T20:01:02.515Z,95029.25
2024-01-01T20:03:29.223Z,95021.63
2024-01-01T20:05:55.814Z,95012.25
2024-01-01T20:08:30.473Z,95021.63
2024-01-01T20:11:04.403Z,95012.16
2024-01-01T20:13:31.032Z,95009.59
2024-01-01T20:15:57.587Z,95008.81
2024-01-01T20:18:24.402Z,94994.88
2024-01-01T20:20:51.237Z,94979.22
2024-01-01T20:23:17.972Z,95003.06
2024-01-01T20:25:44.598Z,94999.63
2024-01-01T20:28:11.266Z,94998.38
2024-01-01T20:30:37.886Z,94982.00
2024-01-01T20:33:05.104Z,94972.97
2024-01-01T20:35:31.871Z,94978.63
2024-01-01T20:37:59.606Z,94976.41
2024-01-01T20:40:26.165Z,94974.88
2024-01-01T20:42:52.711Z,94978.94
2024-01-01T20:45:20.398Z,94984.25
2024-01-01T20:47:47.045Z,94971.50
2024-01-01T20:50:13.715Z,94958.50
2024-01-01T20:52:46.431Z,94960.56
2024-01-01T20:55:19.801Z,94956.53
2024-01-01T20:57:46.394Z,94952.25
2024-01-01T21:00:14.403Z,94944.84
2024-01-01T21:02:41.114Z,94946.88
2024-01-01T21:05:08.041Z,94939.25
2024-01-01T21:07:36.061Z,94940.97
2024-01-01T21:10:33.414Z,94936.88
2024-01-01T21:13:00.063Z,94939.91
2024-01-01T21:15:26.680Z,94925.78
2024-01-01T21:17:53.976Z,94924.81
2024-01-01T21:20:20.627Z,94932.03
2024-01-01T21:22:47.243Z,94925.81
2024-01-01T21:25:13.839Z,94928.41
2024-01-01T21:27:40.451Z,94915.00
2024-01-01T21:30:07.439Z,94924.56
2024-01-01T21:32:34.283Z,94916.34
2024-01-01T21:35:01.120Z,94914.56
2024-01-01T21:37:27.737Z,94916.53
2024-01-01T21:39:54.294Z,94913.34
2024-01-01T21:42:20.834Z,94903.88
2024-01-01T21:44:49.785Z,94899.25
2024-01-01T21:47:18.319Z,94899.81
2024-01-01T21:49:45.191Z,94895.00
2024-01-01T21:52:11.742Z,94892.09
2024-01-01T21:54:39.746Z,94891.66
2024-01-01T21:57:06.609Z,94897.38
2024-01-01T21:59:33.191Z,94894.25
2024-01-01T22:02:00.465Z,94912.94
2024-01-01T22:04:27.038Z,94913.38
2024-01-01T22:06:53.558Z,94912.78
2024-01-01T22:09:20.109Z,94921.94
2024-01-01T22:11:46.766Z,94915.22
2024-01-01T22:14:13.319Z,94912.94
2024-01-01T22:16:40.507Z,94924.81
2024-01-01T22:19:07.132Z,94930.09
2024-01-01T22:21:33.791Z,94930.09
2024-01-01T22:24:00.394Z,94941.44
2024-01-01T22:26:26.971Z,94940.19
2024-01-01T22:28:53.536Z,94949.09
2024-01-01T22:31:20.112Z,94950.63
2024-01-01T22:33:46.832Z,94944.16
2024-01-01T22:36:13.734Z,94948.81
2024-01-01T22:38:40.275Z,94942.72
2024-01-01T22:41:06.842Z,94939.31
2024-01-01T22:43:33.480Z,94932.84
2024-01-01T22:46:00.038Z,94929.88
2024-01-01T22:48:26.710Z,94926.78
2024-01-01T22:50:53.324Z,94931.22
2024-01-01T22:53:21.551Z,94938.00
2024-01-01T22:55:49.607Z,94933.53
2024-01-01T22:58:16.281Z,94920.16
2024-01-01T23:00:42.864Z,94916.13
2024-01-01T23:03:09.902Z,94920.00
2024-01-01T23:05:36.870Z,94919.72
2024-01-01T23:08:03.695Z,94922.16
2024-01-01T23:10:30.282Z,94913.59
2024-01-01T23:12:57.581Z,94917.94
2024-01-01T23:15:24.455Z,94914.50
2024-01-01T23:17:51.126Z,94917.88
2024-01-01T23:20:18.373Z,94915.13
2024-01-01T23:22:45.192Z,94907.31
2024-01-01T23:25:11.862Z,94888.69
2024-01-01T23:27:41.400Z,94894.91
2024-01-01T23:30:08.569Z,94902.44
2024-01-01T23:32:35.225Z,94906.50
2024-01-01T23:35:02.161Z,94899.69
2024-01-01T23:37:28.922Z,94899.34
2024-01-01T23:39:55.455Z,94893.63
2024-01-01T23:42:22.099Z,94893.22
2024-01-01T23:44:48.695Z,94885.47
2024-01-01T23:47:15.278Z,94903.34
2024-01-01T23:49:43.220Z,94901.66
2024-01-01T23:52:09.805Z,94896.25
2024-01-01T23:54:36.377Z,94891.78
2024-01-01T23:57:03.028Z,94892.00
2024-01-01T23:59:30.295Z,94886.69
